Time;durP1;ratioP1;P1;durP2;ratioP2;P2;SDS_P1;SDS_P2;PMS_P1;PMS_P2;Temp;Humidity;BMP_temperature;BMP_pressure;BME280_temperature;BME280_humidity;BME280_pressure;Samples;Min_cycle;Max_cycle;Signal;HPM_P1;HPM_P2
2022/09/29 00:00:54;;;;;;;9.00;5.80;;;;;;;7.62;93.24;99278.28;107774;1274;62636;-76
2022/09/29 00:03:22;;;;;;;8.70;6.10;;;;;;;7.52;93.46;99283.19;108032;1273;61318;-75
2022/09/29 00:05:50;;;;;;;9.20;5.80;;;;;;;7.45;93.98;99284.30;107798;1274;76048;-75
2022/09/29 00:08:19;;;;;;;8.90;5.50;;;;;;;7.38;94.01;99281.56;107532;1274;72523;-78
2022/09/29 00:10:47;;;;;;;10.40;6.50;;;;;;;7.31;94.16;99281.90;107528;1274;72892;-75
2022/09/29 00:13:14;;;;;;;9.10;6.00;;;;;;;7.24;94.40;99279.48;107814;1274;61787;-75
2022/09/29 00:15:41;;;;;;;9.60;6.00;;;;;;;7.17;94.45;99276.66;107595;1273;60638;-75
2022/09/29 00:18:09;;;;;;;8.50;5.90;;;;;;;7.11;94.41;99275.09;107738;1274;76022;-76
2022/09/29 00:20:40;;;;;;;8.40;5.40;;;;;;;7.05;94.63;99275.84;108012;1274;72896;-76
2022/09/29 00:23:06;;;;;;;10.20;5.70;;;;;;;7.00;95.09;99276.80;108063;1274;73696;-75
2022/09/29 00:25:33;;;;;;;11.40;6.20;;;;;;;6.97;95.18;99278.20;107266;1274;61374;-76
2022/09/29 00:28:00;;;;;;;10.10;5.90;;;;;;;6.92;95.39;99277.60;107869;1274;62785;-75
2022/09/29 00:30:28;;;;;;;9.30;6.30;;;;;;;6.89;95.40;99279.29;107889;1274;74674;-75
2022/09/29 00:32:54;;;;;;;9.00;6.00;;;;;;;6.84;95.18;99277.64;107832;1276;71353;-75
2022/09/29 00:35:21;;;;;;;9.20;5.90;;;;;;;6.77;95.49;99278.61;107619;1274;74546;-75
2022/09/29 00:37:48;;;;;;;9.20;6.30;;;;;;;6.72;95.42;99281.20;107946;1274;62082;-74
2022/09/29 00:40:14;;;;;;;10.70;5.80;;;;;;;6.68;95.67;99282.60;108168;1273;59309;-75
2022/09/29 00:42:41;;;;;;;8.70;5.90;;;;;;;6.63;95.97;99281.33;107846;1274;74877;-76
2022/09/29 00:45:23;;;;;;;9.30;6.10;;;;;;;6.60;96.26;99283.31;107449;1277;71064;-76
2022/09/29 00:48:02;;;;;;;9.40;6.00;;;;;;;6.58;96.63;99282.33;107664;1274;72512;-77
2022/09/29 00:50:40;;;;;;;9.90;6.10;;;;;;;6.56;96.59;99281.77;108039;1274;61242;-75
2022/09/29 00:53:11;;;;;;;11.70;6.30;;;;;;;6.54;96.89;99280.89;107593;1274;60596;-75
2022/09/29 00:55:45;;;;;;;9.50;6.50;;;;;;;6.52;96.94;99280.87;108167;1274;75987;-74
2022/09/29 00:58:24;;;;;;;9.50;5.90;;;;;;;6.49;97.28;99275.40;107923;1274;72268;-74
2022/09/29 01:00:51;;;;;;;11.30;6.00;;;;;;;6.48;97.16;99277.13;107706;1274;72807;-76
2022/09/29 01:03:22;;;;;;;8.70;5.80;;;;;;;6.46;97.32;99274.23;107560;1274;61561;-76
2022/09/29 01:05:53;;;;;;;9.30;6.00;;;;;;;6.44;97.30;99272.77;107741;1273;61660;-76
2022/09/29 01:08:29;;;;;;;10.60;6.10;;;;;;;6.42;97.24;99279.11;107531;1274;75795;-75
2022/09/29 01:10:56;;;;;;;8.60;5.70;;;;;;;6.40;97.29;99276.57;107834;1274;71208;-76
2022/09/29 01:13:23;;;;;;;10.40;6.00;;;;;;;6.38;97.51;99277.45;108170;1274;72510;-76
2022/09/29 01:15:50;;;;;;;9.80;6.00;;;;;;;6.36;97.48;99273.85;108043;1274;61507;-76
2022/09/29 01:18:17;;;;;;;10.90;6.40;;;;;;;6.34;97.50;99275.36;107854;1274;61928;-76
2022/09/29 01:21:18;;;;;;;9.70;5.90;;;;;;;6.31;97.52;99274.66;107619;1274;74993;-76
2022/09/29 01:23:51;;;;;;;13.60;6.30;;;;;;;6.27;97.36;99275.80;107781;1274;72408;-75
2022/09/29 01:26:49;;;;;;;9.10;5.70;;;;;;;6.25;97.38;99279.26;107736;1274;72101;-75
2022/09/29 01:29:44;;;;;;;9.00;6.00;;;;;;;6.21;97.40;99277.05;107547;1274;61909;-76
2022/09/29 01:32:47;;;;;;;11.20;6.30;;;;;;;6.17;97.53;99279.98;108025;1274;60268;-76
2022/09/29 01:35:33;;;;;;;9.00;6.10;;;;;;;6.13;97.67;99281.98;107778;1273;74768;-75
2022/09/29 01:38:21;;;;;;;9.30;6.40;;;;;;;6.10;97.64;99287.93;107858;1274;72031;-76
2022/09/29 01:41:02;;;;;;;8.70;5.90;;;;;;;6.07;97.53;99292.60;107587;1274;72981;-76
2022/09/29 01:43:38;;;;;;;10.60;6.70;;;;;;;6.02;97.88;99292.22;107775;1274;59139;-77
2022/09/29 01:46:17;;;;;;;10.90;6.30;;;;;;;6.00;97.77;99295.43;107974;1274;61163;-76
2022/09/29 01:48:48;;;;;;;9.20;6.40;;;;;;;5.98;97.90;99297.83;107865;1274;73694;-76
2022/09/29 01:51:20;;;;;;;10.00;6.20;;;;;;;5.96;98.09;99296.51;107872;1276;71991;-76
2022/09/29 01:53:57;;;;;;;10.50;6.70;;;;;;;5.94;98.18;99294.22;107704;1274;73844;-76
2022/09/29 01:57:00;;;;;;;12.50;7.20;;;;;;;5.92;98.27;99295.28;107823;1273;62490;-77
2022/09/29 01:59:39;;;;;;;15.60;8.10;;;;;;;5.92;98.48;99293.08;107447;1273;59297;-76
2022/09/29 02:02:11;;;;;;;10.80;7.30;;;;;;;5.90;98.44;99292.54;107951;1274;74980;-77
2022/09/29 02:04:48;;;;;;;10.90;7.40;;;;;;;5.88;98.21;99294.40;107798;1274;71822;-77
2022/09/29 02:07:43;;;;;;;11.20;6.80;;;;;;;5.84;98.11;99294.09;107971;1274;73336;-76
2022/09/29 02:10:17;;;;;;;11.40;7.80;;;;;;;5.81;98.10;99296.60;108179;1274;61412;-76
2022/09/29 02:12:45;;;;;;;10.60;7.50;;;;;;;5.79;98.41;99297.02;107686;1274;61602;-77
2022/09/29 02:15:19;;;;;;;14.10;8.60;;;;;;;5.79;98.53;99297.02;107784;1274;74480;-76
2022/09/29 02:17:49;;;;;;;13.40;7.60;;;;;;;5.78;98.60;99298.90;107631;1274;71344;-77
2022/09/29 02:20:17;;;;;;;13.80;8.20;;;;;;;5.77;98.61;99299.56;107365;1274;72940;-77
2022/09/29 02:22:44;;;;;;;14.40;8.60;;;;;;;5.75;98.62;99296.95;107723;1273;61172;-77
2022/09/29 02:25:15;;;;;;;14.80;8.30;;;;;;;5.73;98.75;99296.39;108144;1274;60243;-77
2022/09/29 02:27:42;;;;;;;14.80;9.00;;;;;;;5.73;98.90;99297.04;107943;1274;75991;-77
2022/09/29 02:30:10;;;;;;;16.40;9.50;;;;;;;5.72;99.14;99295.69;108143;1274;72658;-77
2022/09/29 02:32:37;;;;;;;15.80;9.10;;;;;;;5.71;99.33;99296.29;107750;1274;72971;-78
2022/09/29 02:35:07;;;;;;;16.00;9.50;;;;;;;5.72;99.23;99298.89;107534;1274;62614;-77
2022/09/29 02:37:39;;;;;;;15.40;9.60;;;;;;;5.70;99.35;99299.78;107488;1273;61099;-79
2022/09/29 02:40:21;;;;;;;16.90;10.10;;;;;;;5.70;99.73;99301.20;107993;1274;75721;-77
2022/09/29 02:42:58;;;;;;;17.90;9.90;;;;;;;5.69;99.89;99299.00;107955;1274;72432;-78
2022/09/29 02:45:44;;;;;;;15.60;9.60;;;;;;;5.69;99.92;99301.95;107670;1274;73833;-78
2022/09/29 02:48:17;;;;;;;16.30;9.90;;;;;;;5.69;99.95;99303.61;107949;1274;63014;-78
2022/09/29 02:50:46;;;;;;;18.30;11.00;;;;;;;5.70;99.97;99308.86;107919;1274;60463;-78
2022/09/29 02:53:28;;;;;;;17.80;10.60;;;;;;;5.70;99.87;99308.04;107826;1274;73883;-78
2022/09/29 02:56:26;;;;;;;19.20;11.20;;;;;;;5.69;99.94;99306.89;107712;1274;71628;-78
2022/09/29 02:59:00;;;;;;;20.00;11.60;;;;;;;5.69;100.00;99305.51;107711;1274;72713;-79
2022/09/29 03:01:30;;;;;;;21.30;12.00;;;;;;;5.69;100.00;99311.14;108216;1274;62356;-78
2022/09/29 03:03:58;;;;;;;20.20;12.00;;;;;;;5.69;100.00;99307.58;107682;1274;60524;-78
2022/09/29 03:06:30;;;;;;;21.20;12.50;;;;;;;5.69;100.00;99306.86;108024;1274;75640;-79
2022/09/29 03:08:57;;;;;;;20.30;12.60;;;;;;;5.71;100.00;99307.40;107882;1274;71545;-78
2022/09/29 03:11:24;;;;;;;21.30;12.70;;;;;;;5.72;100.00;99310.09;107576;1274;74022;-78
2022/09/29 03:13:50;;;;;;;20.50;12.20;;;;;;;5.72;100.00;99309.02;107329;1274;62404;-78
2022/09/29 03:16:17;;;;;;;20.10;12.70;;;;;;;5.73;100.00;99309.79;107939;1273;60448;-78
2022/09/29 03:18:44;;;;;;;22.10;13.40;;;;;;;5.73;100.00;99312.02;108036;1274;75669;-78
2022/09/29 03:21:11;;;;;;;21.00;13.00;;;;;;;5.73;100.00;99317.32;107715;1274;72310;-78
2022/09/29 03:23:38;;;;;;;20.20;12.90;;;;;;;5.73;100.00;99321.40;107627;1274;72889;-77
2022/09/29 03:26:08;;;;;;;23.10;13.90;;;;;;;5.73;100.00;99318.41;108216;1274;61399;-78
2022/09/29 03:28:35;;;;;;;22.50;13.00;;;;;;;5.73;100.00;99320.35;107949;1274;60547;-78
2022/09/29 03:31:09;;;;;;;21.70;13.50;;;;;;;5.72;100.00;99322.82;107628;1274;75620;-79
2022/09/29 03:33:37;;;;;;;23.00;13.60;;;;;;;5.71;100.00;99323.89;107749;1274;71383;-78
2022/09/29 03:36:05;;;;;;;21.10;13.40;;;;;;;5.70;100.00;99325.77;107537;1274;73004;-78
2022/09/29 03:38:35;;;;;;;21.30;12.70;;;;;;;5.68;100.00;99326.51;107820;1273;61316;-78
2022/09/29 03:41:02;;;;;;;21.70;12.60;;;;;;;5.67;100.00;99325.40;107885;1274;61427;-79
2022/09/29 03:43:29;;;;;;;24.70;13.40;;;;;;;5.66;100.00;99324.82;107979;1274;75884;-79
2022/09/29 03:45:56;;;;;;;25.80;13.00;;;;;;;5.65;100.00;99323.90;107697;1274;71582;-79
2022/09/29 03:48:23;;;;;;;26.90;13.30;;;;;;;5.65;100.00;99323.35;108191;1274;72880;-80
2022/09/29 03:50:51;;;;;;;27.10;13.70;;;;;;;5.64;100.00;99323.45;107575;1274;62362;-78
2022/09/29 03:53:17;;;;;;;23.10;13.10;;;;;;;5.63;100.00;99325.02;108051;1274;61674;-78
2022/09/29 03:55:48;;;;;;;24.50;13.10;;;;;;;5.60;100.00;99328.48;107485;1274;75609;-78
2022/09/29 03:58:16;;;;;;;26.50;12.80;;;;;;;5.57;99.99;99332.35;107912;1274;72618;-78
2022/09/29 04:00:43;;;;;;;25.00;13.70;;;;;;;5.52;99.88;99328.88;107329;1274;75672;-80
2022/09/29 04:03:10;;;;;;;21.90;13.30;;;;;;;5.49;99.99;99337.14;107791;1274;61521;-79
2022/09/29 04:05:39;;;;;;;21.60;12.60;;;;;;;5.45;99.87;99336.54;107514;1273;60371;-77
2022/09/29 04:08:07;;;;;;;22.70;12.80;;;;;;;5.42;99.74;99339.73;108096;1274;74606;-78
2022/09/29 04:10:34;;;;;;;24.40;13.40;;;;;;;5.39;99.96;99343.55;107745;1274;72790;-78
2022/09/29 04:13:02;;;;;;;23.60;13.20;;;;;;;5.36;99.99;99344.58;107758;1274;72615;-78
2022/09/29 04:15:29;;;;;;;23.40;12.30;;;;;;;5.34;99.88;99342.54;107893;1273;61511;-79
2022/09/29 04:17:57;;;;;;;26.10;13.60;;;;;;;5.33;100.00;99345.43;107884;1274;61265;-78
2022/09/29 04:20:24;;;;;;;24.70;13.30;;;;;;;5.34;100.00;99347.45;107648;1273;75678;-78
2022/09/29 04:22:51;;;;;;;29.80;14.10;;;;;;;5.34;100.00;99346.18;107923;1274;72620;-79
2022/09/29 04:25:18;;;;;;;27.80;13.50;;;;;;;5.37;100.00;99351.17;107622;1274;73973;-79
2022/09/29 04:27:45;;;;;;;30.00;13.50;;;;;;;5.39;100.00;99354.70;108111;1274;62270;-78
2022/09/29 04:30:11;;;;;;;33.80;14.80;;;;;;;5.44;100.00;99354.93;108053;1273;59512;-78
2022/09/29 04:32:38;;;;;;;40.10;15.80;;;;;;;5.47;100.00;99352.73;107609;1277;73244;-78
2022/09/29 04:35:05;;;;;;;34.20;14.90;;;;;;;5.52;100.00;99357.34;107935;1274;71347;-78
2022/09/29 04:37:32;;;;;;;36.00;14.90;;;;;;;5.58;100.00;99358.15;107881;1274;73426;-78
2022/09/29 04:39:59;;;;;;;33.00;14.30;;;;;;;5.62;100.00;99359.24;107799;1274;62644;-79
2022/09/29 04:42:26;;;;;;;38.20;16.10;;;;;;;5.65;100.00;99358.60;107960;1274;61140;-78
2022/09/29 04:45:00;;;;;;;38.80;16.40;;;;;;;5.70;100.00;99358.60;108076;1274;74747;-79
2022/09/29 04:47:47;;;;;;;41.60;16.50;;;;;;;5.75;100.00;99359.81;107661;1272;72073;-79
2022/09/29 04:50:28;;;;;;;38.40;16.10;;;;;;;5.80;100.00;99361.45;107660;1274;73225;-78
2022/09/29 04:53:41;;;;;;;42.20;16.50;;;;;;;5.85;100.00;99363.99;107852;1274;60236;-79
2022/09/29 04:56:50;;;;;;;38.10;15.40;;;;;;;5.90;100.00;99363.30;107682;1274;59388;-79
2022/09/29 04:59:42;;;;;;;37.10;15.90;;;;;;;5.93;100.00;99362.77;107620;1274;76694;-80
2022/09/29 05:02:35;;;;;;;35.80;16.20;;;;;;;5.95;100.00;99367.02;107748;1274;72244;-79
2022/09/29 05:05:31;;;;;;;32.30;15.70;;;;;;;5.93;100.00;99366.48;108015;1274;71408;-80
2022/09/29 05:12:13;;;;;;;32.50;15.80;;;;;;;5.91;100.00;99375.30;107102;1284;61467;-74
2022/09/29 05:14:41;;;;;;;31.70;15.50;;;;;;;5.90;100.00;99375.33;106766;1284;74445;-74
2022/09/29 05:17:09;;;;;;;34.50;16.20;;;;;;;5.93;100.00;99380.81;106894;1277;71110;-74
2022/09/29 05:19:55;;;;;;;46.80;24.80;;;;;;;5.96;100.00;99381.22;106753;1277;71886;-74
2022/09/29 05:22:32;;;;;;;43.50;19.80;;;;;;;5.97;100.00;99380.23;107125;1277;62147;-74
2022/09/29 05:25:00;;;;;;;65.20;28.60;;;;;;;6.01;100.00;99379.27;107255;1276;60319;-74
2022/09/29 05:27:33;;;;;;;52.30;25.20;;;;;;;6.02;100.00;99383.34;107087;1277;74866;-73
2022/09/29 05:30:10;;;;;;;43.70;19.20;;;;;;;6.05;100.00;99387.35;106885;1277;71059;-75
2022/09/29 05:32:43;;;;;;;51.20;22.40;;;;;;;6.06;100.00;99388.86;107247;1277;73014;-74
2022/09/29 05:35:10;;;;;;;48.70;22.10;;;;;;;6.07;100.00;99390.17;107191;1277;63014;-74
2022/09/29 05:37:37;;;;;;;63.00;32.00;;;;;;;6.08;100.00;99392.70;107253;1277;60331;-74
2022/09/29 05:40:05;;;;;;;57.40;27.60;;;;;;;6.08;100.00;99394.17;107320;1274;74648;-73
2022/09/29 05:42:32;;;;;;;42.00;19.10;;;;;;;6.08;100.00;99392.59;108219;1272;71317;-73
2022/09/29 05:45:02;;;;;;;41.30;18.20;;;;;;;6.08;100.00;99393.55;107869;1274;73948;-73
2022/09/29 05:47:30;;;;;;;38.70;18.10;;;;;;;6.08;100.00;99393.38;107541;1276;61214;-73
2022/09/29 05:49:57;;;;;;;39.30;18.60;;;;;;;6.09;100.00;99395.52;107541;1274;61948;-73
2022/09/29 05:52:24;;;;;;;37.50;18.50;;;;;;;6.10;100.00;99392.17;107961;1276;75990;-73
2022/09/29 05:54:51;;;;;;;49.30;26.30;;;;;;;6.12;100.00;99397.05;107693;1274;71653;-74
2022/09/29 05:57:18;;;;;;;38.30;18.00;;;;;;;6.14;100.00;99396.01;107461;1274;74322;-74
2022/09/29 05:59:45;;;;;;;41.30;19.50;;;;;;;6.16;100.00;99397.20;107985;1274;61261;-74
2022/09/29 06:02:12;;;;;;;34.70;17.70;;;;;;;6.17;100.00;99393.38;107995;1274;60398;-74
2022/09/29 06:04:40;;;;;;;35.80;17.80;;;;;;;6.18;100.00;99393.98;108066;1274;75157;-74
2022/09/29 06:07:07;;;;;;;36.10;18.50;;;;;;;6.20;100.00;99393.09;107446;1274;71340;-74
2022/09/29 06:09:34;;;;;;;34.30;18.30;;;;;;;6.22;100.00;99393.90;107396;1274;72986;-74
2022/09/29 06:12:02;;;;;;;32.60;16.80;;;;;;;6.24;100.00;99396.77;107891;1274;62754;-74
2022/09/29 06:14:29;;;;;;;39.50;19.40;;;;;;;6.27;100.00;99401.67;107449;1273;61253;-76
2022/09/29 06:16:56;;;;;;;34.00;17.70;;;;;;;6.31;100.00;99398.95;107661;1274;75810;-74
2022/09/29 06:19:23;;;;;;;36.50;18.40;;;;;;;6.36;100.00;99397.35;107450;1274;72095;-74
2022/09/29 06:21:49;;;;;;;34.80;18.50;;;;;;;6.40;100.00;99398.80;108056;1274;72953;-75
2022/09/29 06:24:17;;;;;;;36.70;19.20;;;;;;;6.44;100.00;99400.55;107642;1274;60340;-75
2022/09/29 06:26:44;;;;;;;37.30;18.30;;;;;;;6.50;100.00;99405.35;107653;1273;60418;-75
2022/09/29 06:29:11;;;;;;;35.40;18.50;;;;;;;6.57;100.00;99404.16;107579;1273;75943;-74
2022/09/29 06:31:38;;;;;;;35.70;19.40;;;;;;;6.64;100.00;99402.42;107793;1275;72281;-73
2022/09/29 06:34:05;;;;;;;36.10;18.40;;;;;;;6.72;100.00;99410.36;107649;1275;74138;-74
2022/09/29 06:39:29;;;;;;;37.30;19.70;;;;;;;6.87;100.00;99409.08;107966;1274;61266;-74
2022/09/29 06:41:56;;;;;;;37.30;20.00;;;;;;;6.94;100.00;99408.19;107720;1273;75915;-73
2022/09/29 06:44:25;;;;;;;35.20;19.40;;;;;;;7.02;100.00;99411.21;107669;1274;71509;-74
2022/09/29 06:46:53;;;;;;;35.60;20.00;;;;;;;7.09;100.00;99404.69;107430;1274;73367;-73
2022/09/29 06:49:20;;;;;;;34.90;19.80;;;;;;;7.16;100.00;99405.17;107566;1274;61436;-74
2022/09/29 06:51:47;;;;;;;33.40;20.10;;;;;;;7.26;100.00;99408.79;107675;1274;59687;-73
2022/09/29 06:54:19;;;;;;;31.80;19.20;;;;;;;7.36;100.00;99411.98;107831;1273;75724;-75
2022/09/29 06:56:47;;;;;;;31.80;19.20;;;;;;;7.47;99.97;99417.86;107770;1274;71338;-75
2022/09/29 06:59:14;;;;;;;29.00;19.10;;;;;;;7.56;99.79;99412.97;107908;1274;73083;-74
2022/09/29 07:01:41;;;;;;;26.40;17.90;;;;;;;7.64;99.74;99416.84;107676;1274;61737;-75
2022/09/29 07:04:08;;;;;;;31.60;18.70;;;;;;;7.71;99.16;99416.46;107325;1274;61086;-75
2022/09/29 07:06:34;;;;;;;28.40;18.40;;;;;;;7.80;99.22;99422.15;107749;1273;75890;-73
2022/09/29 07:09:02;;;;;;;27.90;18.40;;;;;;;7.86;98.48;99421.23;108134;1274;72079;-75
2022/09/29 07:11:28;;;;;;;26.80;18.00;;;;;;;7.90;97.66;99421.27;107897;1274;72826;-74
2022/09/29 07:13:55;;;;;;;27.60;18.10;;;;;;;7.96;97.59;99420.88;107718;1271;61607;-74
2022/09/29 07:16:22;;;;;;;28.20;18.20;;;;;;;8.03;97.13;99425.82;107837;1274;60949;-74
2022/09/29 07:18:50;;;;;;;26.80;18.40;;;;;;;8.08;96.93;99424.28;107870;1274;76293;-74
2022/09/29 07:21:18;;;;;;;25.90;17.80;;;;;;;8.11;95.77;99427.45;107666;1274;71107;-72
2022/09/29 07:23:46;;;;;;;26.60;17.20;;;;;;;8.20;96.13;99427.07;107496;1274;72975;-74
2022/09/29 07:26:15;;;;;;;25.30;17.40;;;;;;;8.27;95.58;99429.81;107997;1274;61435;-75
2022/09/29 07:28:43;;;;;;;27.60;16.40;;;;;;;8.35;95.68;99430.61;108065;1274;61759;-75
2022/09/29 07:31:13;;;;;;;28.00;18.60;;;;;;;8.44;95.64;99434.16;107968;1276;74921;-74
2022/09/29 07:33:42;;;;;;;26.00;17.40;;;;;;;8.53;95.42;99438.50;107738;1274;71949;-74
2022/09/29 07:36:09;;;;;;;24.60;17.30;;;;;;;8.63;95.26;99440.57;107705;1274;72952;-74
2022/09/29 07:38:36;;;;;;;23.20;16.50;;;;;;;8.74;94.91;99443.48;108076;1274;62340;-74
2022/09/29 07:41:10;;;;;;;28.00;18.60;;;;;;;8.86;94.90;99446.88;107587;1273;60522;-74
2022/09/29 07:43:37;;;;;;;26.60;17.50;;;;;;;8.96;94.18;99449.05;107538;1274;75340;-74
2022/09/29 07:46:05;;;;;;;24.20;17.40;;;;;;;9.07;93.75;99451.72;107654;1274;71820;-74
2022/09/29 07:48:37;;;;;;;25.20;18.20;;;;;;;9.15;92.82;99451.27;107757;1274;73715;-74
2022/09/29 07:51:14;;;;;;;22.30;16.30;;;;;;;9.29;93.18;99452.16;107539;1274;61115;-74
2022/09/29 07:53:41;;;;;;;22.70;16.70;;;;;;;9.44;92.97;99453.43;108084;1273;59467;-74
2022/09/29 07:56:20;;;;;;;23.20;17.20;;;;;;;9.58;92.25;99457.20;107724;1274;75508;-74
2022/09/29 07:58:51;;;;;;;24.40;16.30;;;;;;;9.72;91.78;99457.32;107884;1274;72069;-74
2022/09/29 08:01:18;;;;;;;23.10;16.60;;;;;;;9.85;90.82;99459.06;107516;1274;72963;-74
2022/09/29 08:03:54;;;;;;;22.60;16.30;;;;;;;10.00;90.60;99459.17;107839;1273;62258;-74
2022/09/29 08:06:22;;;;;;;22.20;16.40;;;;;;;10.13;90.27;99460.31;107974;1274;60830;-74
2022/09/29 08:08:50;;;;;;;22.20;15.70;;;;;;;10.24;88.84;99462.20;107550;1274;75174;-74
2022/09/29 08:11:31;;;;;;;19.80;14.70;;;;;;;10.32;88.24;99470.03;107982;1274;72557;-74
2022/09/29 08:13:59;;;;;;;19.10;14.70;;;;;;;10.43;88.34;99469.27;107558;1273;72754;-73
2022/09/29 08:16:27;;;;;;;18.50;14.60;;;;;;;10.55;87.04;99471.34;107373;1274;62931;-74
2022/09/29 08:18:54;;;;;;;20.00;13.80;;;;;;;10.64;85.96;99473.95;108028;1273;61707;-74
2022/09/29 08:21:21;;;;;;;19.40;14.20;;;;;;;10.72;85.14;99475.04;107104;1274;74089;-75
2022/09/29 08:23:50;;;;;;;18.80;14.10;;;;;;;10.77;84.78;99472.51;107888;1274;72200;-75
2022/09/29 08:26:34;;;;;;;18.20;13.70;;;;;;;10.91;85.36;99471.38;107522;1274;75463;-75
2022/09/29 08:29:15;;;;;;;19.70;14.60;;;;;;;11.01;83.91;99474.21;107517;1274;60236;-74
2022/09/29 08:31:44;;;;;;;17.50;13.70;;;;;;;11.06;83.16;99474.13;107589;1276;59988;-75
2022/09/29 08:34:12;;;;;;;19.90;13.90;;;;;;;11.14;83.29;99477.58;108019;1273;75524;-74
2022/09/29 08:36:40;;;;;;;17.40;13.10;;;;;;;11.24;82.55;99480.44;107455;1274;75419;-74
2022/09/29 08:39:09;;;;;;;17.50;13.30;;;;;;;11.29;81.60;99480.55;107399;1272;73526;-75
2022/09/29 08:42:01;;;;;;;18.60;14.40;;;;;;;11.32;81.34;99485.98;107602;1274;63279;-75
2022/09/29 08:44:41;;;;;;;18.10;13.50;;;;;;;11.35;81.09;99485.68;107802;1273;61163;-74
2022/09/29 08:47:28;;;;;;;18.90;13.40;;;;;;;11.44;80.40;99490.88;107959;1273;74903;-74
2022/09/29 08:50:30;;;;;;;17.90;13.60;;;;;;;11.54;80.35;99497.09;107796;1274;72218;-74
2022/09/29 08:53:12;;;;;;;18.70;13.90;;;;;;;11.63;80.33;99496.80;107921;1274;72825;-74
2022/09/29 08:56:05;;;;;;;18.00;14.00;;;;;;;11.79;80.42;99495.80;107533;1274;61897;-75
2022/09/29 08:58:40;;;;;;;16.30;13.00;;;;;;;11.96;79.90;99495.73;107176;1274;61191;-75
2022/09/29 09:01:18;;;;;;;17.00;12.60;;;;;;;12.08;79.68;99497.91;107568;1274;76048;-74
2022/09/29 09:04:22;;;;;;;18.10;13.20;;;;;;;12.13;78.64;99502.50;107369;1274;72896;-75
2022/09/29 09:06:51;;;;;;;17.30;13.30;;;;;;;12.18;77.66;99500.42;107523;1274;72519;-74
2022/09/29 09:09:49;;;;;;;13.80;10.90;;;;;;;12.22;78.15;99503.55;107501;1274;61172;-74
2022/09/29 09:12:45;;;;;;;15.00;10.70;;;;;;;12.26;77.65;99501.71;107564;1274;59225;-75
2022/09/29 09:15:35;;;;;;;14.40;10.80;;;;;;;12.31;77.41;99506.95;107652;1274;74708;-74
2022/09/29 09:18:30;;;;;;;14.70;11.50;;;;;;;12.39;76.79;99505.19;107453;1274;72579;-74
2022/09/29 09:21:26;;;;;;;14.60;10.50;;;;;;;12.56;77.39;99507.80;107539;1273;74012;-74
2022/09/29 09:23:55;;;;;;;14.40;9.90;;;;;;;12.71;76.98;99506.89;107405;1274;62024;-74
2022/09/29 09:26:44;;;;;;;14.40;10.80;;;;;;;12.84;76.82;99511.77;107151;1274;60351;-73
2022/09/29 09:29:27;;;;;;;13.30;10.60;;;;;;;13.04;76.36;99508.80;107916;1274;74996;-73
2022/09/29 09:32:27;;;;;;;14.00;11.20;;;;;;;13.19;75.45;99508.82;107455;1274;72801;-74
2022/09/29 09:35:01;;;;;;;12.60;10.20;;;;;;;13.38;74.80;99511.55;107578;1277;74457;-74
2022/09/29 09:37:47;;;;;;;12.50;9.60;;;;;;;13.50;73.19;99519.98;108283;1273;62352;-74
2022/09/29 09:40:17;;;;;;;14.40;10.50;;;;;;;13.62;73.77;99519.66;108183;1274;60270;-74
2022/09/29 09:42:56;;;;;;;12.30;9.00;;;;;;;13.76;73.14;99518.64;108346;1274;75938;-73
2022/09/29 09:45:36;;;;;;;11.20;9.40;;;;;;;13.88;73.01;99521.02;108262;1274;71873;-74
2022/09/29 09:48:20;;;;;;;11.90;8.80;;;;;;;14.11;72.39;99520.63;107719;1274;74000;-74
2022/09/29 09:50:51;;;;;;;13.40;9.70;;;;;;;14.28;70.73;99517.80;108127;1273;63353;-74
2022/09/29 09:53:26;;;;;;;11.70;9.50;;;;;;;14.36;70.36;99520.84;107649;1274;61281;-74
2022/09/29 09:56:10;;;;;;;12.50;9.10;;;;;;;14.45;69.47;99519.55;107639;1274;73790;-73
2022/09/29 09:58:57;;;;;;;11.10;9.00;;;;;;;14.48;69.48;99517.24;107743;1274;71336;-74
2022/09/29 10:01:24;;;;;;;11.50;8.60;;;;;;;14.57;69.94;99521.38;107593;1273;74527;-73
2022/09/29 10:03:51;;;;;;;10.40;7.50;;;;;;;14.59;69.60;99523.67;107661;1274;62760;-73
2022/09/29 10:06:18;;;;;;;7.90;6.60;;;;;;;14.57;68.40;99521.45;107776;1276;61616;-74
2022/09/29 10:08:44;;;;;;;8.60;6.70;;;;;;;14.60;67.77;99523.38;108032;1274;74106;-74
2022/09/29 10:11:22;;;;;;;8.80;6.70;;;;;;;14.71;67.10;99519.84;107599;1274;71111;-74
2022/09/29 10:13:57;;;;;;;8.50;6.60;;;;;;;14.65;66.76;99522.39;107558;1274;73718;-73
2022/09/29 10:16:29;;;;;;;10.80;7.70;;;;;;;14.68;66.93;99518.51;107525;1274;62050;-73
2022/09/29 10:18:56;;;;;;;9.30;7.50;;;;;;;14.71;67.44;99520.21;107760;1273;61314;-73
2022/09/29 10:21:27;;;;;;;8.60;6.70;;;;;;;14.70;67.38;99523.20;107811;1274;61125;-73
2022/09/29 10:23:56;;;;;;;6.70;5.50;;;;;;;14.79;66.18;99523.89;107747;1274;71393;-73
2022/09/29 10:26:29;;;;;;;9.20;7.50;;;;;;;14.84;66.29;99523.14;107701;1274;71866;-73
2022/09/29 10:28:59;;;;;;;11.30;7.00;;;;;;;14.98;65.92;99523.20;107293;1274;62037;-73
2022/09/29 10:31:29;;;;;;;9.80;6.60;;;;;;;15.16;65.83;99524.14;107829;1274;59642;-73
2022/09/29 10:33:59;;;;;;;7.90;6.00;;;;;;;15.38;65.21;99522.73;107297;1274;75787;-73
2022/09/29 10:36:32;;;;;;;8.60;6.00;;;;;;;15.59;64.34;99520.29;107698;1274;71495;-74
2022/09/29 10:38:59;;;;;;;7.00;5.60;;;;;;;15.76;62.98;99516.36;107316;1274;71685;-73
2022/09/29 10:41:30;;;;;;;6.40;4.60;;;;;;;15.99;63.30;99519.74;107817;1273;62155;-73
2022/09/29 10:44:19;;;;;;;8.30;6.50;;;;;;;16.13;61.33;99521.65;107598;1274;61942;-73
2022/09/29 10:46:54;;;;;;;7.20;4.80;;;;;;;16.10;61.30;99520.95;107715;1274;74843;-73
2022/09/29 10:49:24;;;;;;;6.30;4.20;;;;;;;16.12;61.63;99524.04;107700;1274;71402;-73
2022/09/29 10:51:59;;;;;;;5.50;3.90;;;;;;;15.94;58.94;99526.54;107764;1274;73411;-73
2022/09/29 10:54:30;;;;;;;4.40;3.20;;;;;;;15.71;58.91;99526.18;107318;1274;62056;-73
2022/09/29 10:56:58;;;;;;;4.30;3.50;;;;;;;15.65;59.62;99528.63;107461;1273;61477;-72
2022/09/29 10:59:26;;;;;;;5.30;3.20;;;;;;;15.77;60.32;99525.58;107632;1274;73763;-73
2022/09/29 11:02:00;;;;;;;4.80;3.50;;;;;;;15.84;59.08;99531.63;107899;1274;72360;-72
2022/09/29 11:04:33;;;;;;;4.80;3.30;;;;;;;15.76;58.24;99528.38;107381;1274;74760;-72
2022/09/29 11:07:09;;;;;;;4.70;3.10;;;;;;;15.63;59.42;99532.70;107683;1271;62129;-72
2022/09/29 11:09:42;;;;;;;4.60;3.20;;;;;;;15.64;60.23;99530.70;107578;1274;61197;-72
2022/09/29 11:12:30;;;;;;;5.90;3.90;;;;;;;15.76;59.84;99538.17;107163;1274;75096;-72
2022/09/29 11:14:59;;;;;;;5.60;3.80;;;;;;;15.66;59.77;99538.11;107612;1273;71658;-72
2022/09/29 11:17:35;;;;;;;6.10;3.70;;;;;;;15.51;60.64;99541.48;107541;1274;74044;-72
2022/09/29 11:20:05;;;;;;;5.50;3.90;;;;;;;15.48;61.18;99542.02;107841;1274;62685;-73
2022/09/29 11:23:12;;;;;;;5.40;4.00;;;;;;;15.55;61.37;99541.99;108075;1273;60498;-73
2022/09/29 11:26:15;;;;;;;5.00;3.60;;;;;;;15.66;61.68;99539.06;107106;1276;74674;-72
2022/09/29 11:28:57;;;;;;;4.50;3.50;;;;;;;15.83;61.16;99544.63;107746;1274;70672;-73
2022/09/29 11:31:51;;;;;;;5.00;3.10;;;;;;;15.77;59.82;99545.95;107537;1271;72668;-72
2022/09/29 11:34:48;;;;;;;6.30;3.20;;;;;;;15.75;60.00;99546.92;107541;1274;63044;-72
2022/09/29 11:37:35;;;;;;;4.50;3.30;;;;;;;15.90;59.92;99547.33;107846;1274;62595;-72
2022/09/29 11:40:28;;;;;;;6.00;2.90;;;;;;;16.36;59.77;99549.83;107845;1274;74877;-72
2022/09/29 11:43:03;;;;;;;3.20;2.40;;;;;;;17.12;56.52;99548.59;107349;1274;69502;-72
2022/09/29 11:45:55;;;;;;;3.80;2.60;;;;;;;17.89;54.57;99549.34;107711;1274;72835;-71
2022/09/29 11:48:29;;;;;;;3.60;2.40;;;;;;;18.54;51.73;99547.15;107710;1274;60886;-71
2022/09/29 11:51:32;;;;;;;4.40;2.40;;;;;;;18.97;51.88;99548.54;108086;1274;61622;-71
2022/09/29 11:54:20;;;;;;;3.40;2.00;;;;;;;19.09;49.88;99553.55;106698;1276;356096;-70